Kezdőlap
METAR-TAF:

METAR-TAF

Repülőterek :

Trabzon, Törökország

földrajzi szélesség: 41-00N, földrajzi hosszúság: 039-43E, magasság: 35 m

Jelenlegi meteorológiai megfigyelések

A jelentés 57 perccel ezelõtt készült, 22:50 UTC
Déli szél 5 kt
Hőmérséklet 16°C
Páratartalom 63%
Légköri nyomás 1016 hPa
Látótávolság 10 km, vagy több
felhőtlen 1500 m magasságban, és nincs gomolyfelhõ

METAR: LTCG 242250Z 17005KT CAVOK 16/09 Q1016 NOSIG RMK RWY29 16006KT

Idő: 02:47 (23:47 UTC)

Előrejelzés

A jelentés 1 órával és 7 perccel ezelõtt készült, 22:40 UTC
Az előrejelzés 25-én 00 óra UTC és 25-én 24 óra UTC között érvényes
Különbözõ irányokból fújó szél 2 kt
Látótávolság 10 km, vagy több
felhőtlen 1500 m magasságban, és nincs gomolyfelhõ

TAF: LTCG 242240Z 2500/2524 VRB02KT CAVOK

Meteorológiai megfigyelések és előrejelzések több, mint 4000 repülőtéren (METAR és TAF jelentéseket).

A térképen piros és sárga pontok jelzik az elérhető meteorológiai állomásokat.

Mozgassa az egeret a pont fölött, hogy megjelenjen az állomás neve.

Azután kattintson az időjárási megfigyelések és előrejelzések megtekintéséhez.

A térkép megváltoztatása: kattintson a fekete keresztel jelölt zöld gombra ráközelítéshez, a vonallal jelölt zöld gombra távolításhoz, vagy a zöld nyilakra a szomszédos térképek eléréséhez.


METAR-TAF: